createdAt,value
2019-05-28T00:01:50.805Z,10.50
2019-05-28T00:04:20.159Z,5.23
2019-05-28T00:06:49.398Z,5.90
2019-05-28T00:09:18.700Z,6.07
2019-05-28T00:11:48.237Z,8.37
2019-05-28T00:14:17.458Z,9.03
2019-05-28T00:16:47.039Z,7.97
2019-05-28T00:19:17.455Z,9.17
2019-05-28T00:21:46.690Z,7.40
2019-05-28T00:24:16.413Z,8.50
2019-05-28T00:26:45.627Z,6.63
2019-05-28T00:29:15.143Z,9.17
2019-05-28T00:31:44.312Z,9.17
2019-05-28T00:34:13.936Z,5.10
2019-05-28T00:36:43.105Z,5.67
2019-05-28T00:39:12.336Z,7.17
2019-05-28T00:41:42.003Z,9.40
2019-05-28T00:44:11.333Z,5.90
2019-05-28T00:46:40.992Z,7.70
2019-05-28T00:49:10.228Z,6.43
2019-05-28T00:51:39.786Z,7.37
2019-05-28T00:54:09.025Z,9.67
2019-05-28T00:56:39.355Z,8.80
2019-05-28T00:59:09.351Z,10.23
2019-05-28T01:01:38.964Z,9.00
2019-05-28T01:04:08.552Z,7.20
2019-05-28T01:06:38.481Z,8.80
2019-05-28T01:09:08.541Z,9.63
2019-05-28T01:11:38.106Z,6.90
2019-05-28T01:14:07.464Z,13.03
2019-05-28T01:16:36.712Z,12.30
2019-05-28T01:19:06.276Z,9.83
2019-05-28T01:21:35.450Z,9.27
2019-05-28T01:24:04.593Z,7.07
2019-05-28T01:26:34.080Z,10.83
2019-05-28T01:29:03.315Z,10.63
2019-05-28T01:31:32.489Z,10.87
2019-05-28T01:34:01.705Z,8.13
2019-05-28T01:36:31.238Z,11.80
2019-05-28T01:39:00.415Z,7.53
2019-05-28T01:41:29.650Z,9.23
2019-05-28T01:43:58.870Z,11.07
2019-05-28T01:46:28.066Z,10.83
2019-05-28T01:48:57.330Z,8.50
2019-05-28T01:51:26.916Z,9.67
2019-05-28T01:53:56.082Z,7.87
2019-05-28T01:56:25.239Z,9.53
2019-05-28T01:58:54.427Z,7.20
2019-05-28T02:01:23.670Z,13.87
2019-05-28T02:03:53.208Z,9.87
2019-05-28T02:06:22.434Z,9.83
2019-05-28T02:08:51.930Z,9.60
2019-05-28T02:11:21.234Z,8.47
2019-05-28T02:13:50.472Z,8.30
2019-05-28T02:16:19.666Z,9.33
2019-05-28T02:18:49.221Z,9.70
2019-05-28T02:21:18.392Z,8.33
2019-05-28T02:23:47.640Z,9.87
2019-05-28T02:26:16.912Z,11.27
2019-05-28T02:28:46.169Z,9.00
2019-05-28T02:31:27.263Z,9.67
2019-05-28T02:33:46.303Z,10.07
2019-05-28T02:36:15.529Z,9.53
2019-05-28T02:38:44.777Z,12.07
2019-05-28T02:41:13.944Z,9.33
2019-05-28T02:43:43.198Z,10.00
2019-05-28T02:46:12.450Z,10.67
2019-05-28T02:48:42.073Z,9.80
2019-05-28T02:51:12.376Z,12.20
2019-05-28T02:53:41.820Z,12.67
2019-05-28T02:56:14.509Z,11.37
2019-05-28T02:58:45.485Z,11.00
2019-05-28T03:01:14.910Z,9.30
2019-05-28T03:03:47.388Z,11.87
2019-05-28T03:06:17.257Z,8.93
2019-05-28T03:08:49.205Z,14.03
2019-05-28T03:11:18.534Z,10.60
2019-05-28T03:13:48.106Z,11.67
2019-05-28T03:16:19.553Z,11.50
2019-05-28T03:18:50.710Z,13.43
2019-05-28T03:21:23.384Z,14.03
2019-05-28T03:23:54.012Z,12.40
2019-05-28T03:26:23.843Z,12.67
2019-05-28T03:28:53.212Z,11.17
2019-05-28T03:31:22.427Z,11.20
2019-05-28T03:33:51.646Z,11.40
2019-05-28T03:36:22.594Z,14.77
2019-05-28T03:38:52.736Z,9.50
2019-05-28T03:41:21.907Z,13.07
2019-05-28T03:43:51.147Z,12.30
2019-05-28T03:46:21.088Z,14.27
2019-05-28T03:48:50.307Z,14.47
2019-05-28T03:51:19.512Z,12.57
2019-05-28T03:53:49.333Z,13.67
2019-05-28T03:56:19.341Z,16.80
2019-05-28T03:58:48.602Z,15.20
2019-05-28T04:01:17.851Z,15.30
2019-05-28T04:03:47.033Z,13.93
2019-05-28T04:06:16.277Z,14.37
2019-05-28T04:08:45.519Z,13.83
2019-05-28T04:11:14.771Z,13.50
2019-05-28T04:13:44.352Z,18.73
2019-05-28T04:16:14.030Z,16.47
2019-05-28T04:18:43.280Z,14.37
2019-05-28T04:21:12.531Z,12.93
2019-05-28T04:23:42.365Z,15.37
2019-05-28T04:26:11.983Z,14.70
2019-05-28T04:28:41.491Z,14.73
2019-05-28T04:31:12.016Z,14.27
2019-05-28T04:33:41.611Z,22.13
2019-05-28T04:36:10.854Z,17.93
2019-05-28T04:38:40.328Z,20.53
2019-05-28T04:41:09.534Z,19.10
2019-05-28T04:43:38.714Z,15.20
2019-05-28T04:46:07.954Z,21.77
2019-05-28T04:48:37.154Z,17.33
2019-05-28T04:51:06.393Z,15.07
2019-05-28T04:53:36.189Z,19.23
2019-05-28T04:56:05.435Z,19.83
2019-05-28T04:58:34.674Z,18.47
2019-05-28T05:01:03.981Z,17.50
2019-05-28T05:03:33.237Z,17.43
2019-05-28T05:06:02.553Z,20.83
2019-05-28T05:08:32.018Z,19.93
2019-05-28T05:11:01.299Z,17.90
2019-05-28T05:13:30.831Z,16.13
2019-05-28T05:16:00.464Z,19.13
2019-05-28T05:18:29.713Z,16.73
2019-05-28T05:20:59.269Z,20.93
2019-05-28T05:23:28.598Z,18.77
2019-05-28T05:25:57.937Z,18.00
2019-05-28T05:28:27.169Z,19.47
2019-05-28T05:30:56.512Z,15.13
2019-05-28T05:33:25.719Z,20.00
2019-05-28T05:35:55.180Z,21.77
2019-05-28T05:38:24.880Z,20.03
2019-05-28T05:40:54.125Z,23.33
2019-05-28T05:43:23.382Z,19.10
2019-05-28T05:45:52.888Z,21.40
2019-05-28T05:48:23.539Z,22.33
2019-05-28T05:51:01.441Z,23.23
2019-05-28T05:57:24.086Z,23.50
2019-05-28T05:59:53.566Z,24.97
2019-05-28T06:02:22.885Z,17.80
2019-05-28T06:04:52.230Z,21.17
2019-05-28T06:07:21.426Z,23.57
2019-05-28T06:09:50.992Z,19.10
2019-05-28T06:12:20.274Z,18.37
2019-05-28T06:14:49.485Z,17.83
2019-05-28T06:17:18.702Z,23.00
2019-05-28T06:19:47.936Z,18.60
2019-05-28T06:22:17.118Z,18.60
2019-05-28T06:24:46.573Z,21.43
2019-05-28T06:27:19.262Z,21.13
2019-05-28T06:29:46.980Z,20.40
2019-05-28T06:32:16.318Z,23.30
2019-05-28T06:34:45.648Z,16.27
2019-05-28T06:37:15.307Z,25.57
2019-05-28T06:39:44.861Z,20.93
2019-05-28T06:42:14.039Z,21.70
2019-05-28T06:44:43.338Z,20.00
2019-05-28T06:47:13.259Z,18.73
2019-05-28T06:49:42.846Z,23.33
2019-05-28T06:52:12.219Z,17.90
2019-05-28T06:54:41.546Z,20.10
2019-05-28T06:57:22.346Z,22.03
2019-05-28T06:59:41.807Z,21.87
2019-05-28T07:02:11.193Z,18.20
2019-05-28T07:04:40.447Z,16.93
2019-05-28T07:07:09.789Z,22.33
2019-05-28T07:09:39.746Z,17.10
2019-05-28T07:12:08.956Z,20.13
2019-05-28T07:14:38.300Z,22.70
2019-05-28T07:17:07.654Z,21.83
2019-05-28T07:19:37.531Z,22.47
2019-05-28T07:22:06.848Z,20.03
2019-05-28T07:24:36.091Z,17.83
2019-05-28T07:27:05.271Z,17.43
2019-05-28T07:29:34.476Z,19.23
2019-05-28T07:32:03.961Z,15.53
2019-05-28T07:34:33.244Z,13.80
2019-05-28T07:37:02.472Z,14.13
2019-05-28T07:39:31.915Z,13.53
2019-05-28T07:42:01.228Z,12.80
2019-05-28T07:44:30.477Z,8.33
2019-05-28T07:47:00.211Z,9.67
2019-05-28T07:49:29.797Z,9.60
2019-05-28T07:51:59.051Z,12.50
2019-05-28T07:54:32.309Z,13.13
2019-05-28T07:57:01.510Z,11.73
2019-05-28T07:59:30.954Z,12.50
2019-05-28T08:02:00.282Z,14.57
2019-05-28T08:04:46.046Z,14.23
2019-05-28T08:07:00.400Z,13.10
2019-05-28T08:09:29.701Z,14.17
2019-05-28T08:11:58.945Z,8.07
2019-05-28T08:14:28.777Z,6.20
2019-05-28T08:16:58.267Z,5.63
2019-05-28T08:19:27.497Z,8.07
2019-05-28T08:21:57.163Z,4.27
2019-05-28T08:24:26.472Z,7.83
2019-05-28T08:26:55.723Z,4.77
2019-05-28T08:29:24.973Z,6.30
2019-05-28T08:31:54.251Z,4.70
2019-05-28T08:34:23.860Z,5.03
2019-05-28T08:37:05.009Z,5.30
2019-05-28T08:39:24.294Z,2.83
2019-05-28T08:41:53.475Z,8.47
2019-05-28T08:44:22.719Z,7.60
2019-05-28T08:46:51.999Z,5.17
2019-05-28T08:49:23.918Z,4.50
2019-05-28T08:51:52.611Z,4.53
2019-05-28T08:54:21.863Z,3.83
2019-05-28T08:56:51.426Z,6.10
2019-05-28T08:59:20.750Z,7.67
2019-05-28T09:01:49.939Z,7.07
2019-05-28T09:04:19.206Z,3.70
2019-05-28T09:06:48.459Z,4.50
2019-05-28T09:09:17.780Z,5.70
2019-05-28T09:11:47.015Z,4.20
2019-05-28T09:14:16.204Z,3.73
2019-05-28T09:16:45.539Z,4.90
2019-05-28T09:19:15.525Z,5.13
2019-05-28T09:21:44.754Z,5.93
2019-05-28T09:24:18.333Z,4.37
2019-05-28T09:26:47.656Z,3.93
2019-05-28T09:29:17.487Z,4.63
2019-05-28T09:31:47.292Z,4.33
2019-05-28T09:34:16.523Z,3.37
2019-05-28T09:36:46.045Z,3.97
2019-05-28T09:39:15.311Z,5.20
2019-05-28T09:41:44.574Z,5.63
2019-05-28T09:44:14.179Z,3.07
2019-05-28T09:46:43.967Z,4.50
2019-05-28T09:49:13.182Z,4.23
2019-05-28T09:51:42.962Z,4.40
2019-05-28T09:54:12.234Z,3.83
2019-05-28T09:56:41.558Z,3.93
2019-05-28T09:59:11.441Z,4.70
2019-05-28T10:01:41.086Z,4.30
2019-05-28T10:04:10.632Z,4.77
2019-05-28T10:06:41.782Z,4.10
2019-05-28T10:09:11.210Z,3.83
2019-05-28T10:11:40.769Z,4.50
2019-05-28T10:14:10.087Z,3.30
2019-05-28T10:16:39.408Z,3.63
2019-05-28T10:19:08.666Z,4.30
2019-05-28T10:21:37.987Z,2.70
2019-05-28T10:24:07.164Z,5.00
2019-05-28T10:26:36.340Z,4.50
2019-05-28T10:29:05.994Z,4.17
2019-05-28T10:31:35.666Z,4.87
2019-05-28T10:34:04.910Z,6.33
2019-05-28T10:36:36.375Z,4.03
2019-05-28T10:39:07.875Z,4.57
2019-05-28T10:41:37.222Z,3.93
2019-05-28T10:44:06.885Z,4.20
2019-05-28T10:46:36.497Z,3.77
2019-05-28T10:49:06.102Z,4.27
2019-05-28T10:51:35.863Z,3.00
2019-05-28T10:54:06.763Z,2.73
2019-05-28T10:56:36.036Z,3.00
2019-05-28T10:59:05.516Z,1.70
2019-05-28T11:01:34.727Z,1.37
2019-05-28T11:04:04.267Z,1.40
2019-05-28T11:06:33.436Z,3.33
2019-05-28T11:09:03.037Z,2.27
2019-05-28T11:11:32.208Z,2.23
2019-05-28T11:14:01.463Z,1.70
2019-05-28T11:16:31.035Z,2.27
2019-05-28T11:19:00.831Z,3.30
2019-05-28T11:21:30.063Z,3.27
2019-05-28T11:23:59.596Z,2.70
2019-05-28T11:26:28.954Z,3.70
2019-05-28T11:28:58.151Z,4.23
2019-05-28T11:31:27.335Z,2.27
2019-05-28T11:33:56.893Z,3.03
2019-05-28T11:36:26.499Z,2.97
2019-05-28T11:38:55.993Z,2.27
2019-05-28T11:41:40.914Z,2.20
2019-05-28T11:43:56.423Z,2.97
2019-05-28T11:46:25.627Z,2.27
2019-05-28T11:48:54.789Z,1.80
2019-05-28T11:51:24.867Z,1.70
2019-05-28T11:53:54.728Z,3.77
2019-05-28T11:56:24.245Z,2.37
2019-05-28T11:58:53.461Z,1.37
2019-05-28T12:01:33.825Z,1.77
2019-05-28T12:03:54.116Z,4.07
2019-05-28T12:06:23.590Z,1.87
2019-05-28T12:08:53.189Z,1.07
2019-05-28T12:11:22.380Z,1.20
2019-05-28T12:13:51.768Z,1.10
2019-05-28T12:16:21.010Z,3.37
2019-05-28T12:18:50.581Z,0.90
2019-05-28T12:21:19.938Z,1.30
2019-05-28T12:23:49.568Z,1.10
2019-05-28T12:26:18.857Z,1.30
2019-05-28T12:28:48.093Z,2.53
2019-05-28T12:31:17.668Z,2.40
2019-05-28T12:33:47.189Z,1.87
2019-05-28T12:36:16.687Z,2.00
2019-05-28T12:38:45.893Z,2.00
2019-05-28T12:41:15.107Z,2.63
2019-05-28T12:43:44.746Z,2.93
2019-05-28T12:46:14.248Z,3.00
2019-05-28T12:48:43.808Z,2.87
2019-05-28T12:51:13.039Z,4.33
2019-05-28T12:53:49.773Z,4.23
2019-05-28T12:56:13.189Z,4.60
2019-05-28T12:58:43.578Z,5.30
2019-05-28T13:01:13.024Z,8.00
2019-05-28T13:03:42.453Z,8.53
2019-05-28T13:06:11.958Z,9.97
2019-05-28T13:08:41.767Z,7.83
2019-05-28T13:11:11.029Z,7.47
2019-05-28T13:13:40.818Z,7.70
2019-05-28T13:16:10.336Z,7.80
2019-05-28T13:18:39.612Z,9.23
2019-05-28T13:21:08.848Z,8.83
2019-05-28T13:23:38.021Z,9.43
2019-05-28T13:26:07.206Z,9.27
2019-05-28T13:28:36.651Z,9.97
2019-05-28T13:31:05.879Z,9.47
2019-05-28T13:33:35.579Z,10.03
2019-05-28T13:36:05.050Z,9.23
2019-05-28T13:38:34.290Z,10.00
2019-05-28T13:41:04.098Z,9.07
2019-05-28T13:43:33.344Z,7.80
2019-05-28T13:46:02.901Z,9.30
2019-05-28T13:48:32.144Z,9.00
2019-05-28T13:51:01.397Z,6.40
2019-05-28T13:53:31.002Z,6.73
2019-05-28T13:56:00.368Z,5.83
2019-05-28T13:58:29.648Z,4.73
2019-05-28T14:00:58.901Z,5.47
2019-05-28T14:03:28.424Z,4.47
2019-05-28T14:05:57.695Z,3.87
2019-05-28T14:08:44.631Z,4.20
2019-05-28T14:10:58.430Z,3.53
2019-05-28T14:13:27.587Z,3.50
2019-05-28T14:15:56.835Z,3.90
2019-05-28T14:18:26.377Z,3.80
2019-05-28T14:20:55.642Z,3.00
2019-05-28T14:23:24.997Z,3.10
2019-05-28T14:25:54.501Z,3.33
2019-05-28T14:28:23.746Z,3.43
2019-05-28T14:31:00.017Z,3.60
2019-05-28T14:33:24.445Z,4.80
2019-05-28T14:35:53.613Z,4.97
2019-05-28T14:38:22.846Z,5.33
2019-05-28T14:40:52.849Z,5.43
2019-05-28T14:43:22.173Z,6.07
2019-05-28T14:45:51.532Z,5.40
2019-05-28T14:48:20.894Z,3.80
2019-05-28T14:50:50.035Z,4.50
2019-05-28T14:53:19.318Z,5.50
2019-05-28T14:55:48.598Z,5.43
2019-05-28T14:58:18.427Z,5.73
2019-05-28T15:00:48.346Z,5.50
2019-05-28T15:03:17.614Z,5.10
2019-05-28T15:05:46.756Z,4.97
2019-05-28T15:08:16.474Z,5.40
2019-05-28T15:10:45.701Z,5.07
2019-05-28T15:13:14.972Z,4.80
2019-05-28T15:15:44.523Z,4.93
2019-05-28T15:18:13.789Z,5.17
2019-05-28T15:20:43.034Z,5.43
2019-05-28T15:23:12.220Z,4.40
2019-05-28T15:25:41.651Z,4.27
2019-05-28T15:28:11.153Z,3.27
2019-05-28T15:30:42.614Z,4.03
2019-05-28T15:33:11.345Z,4.10
2019-05-28T15:35:40.864Z,4.33
2019-05-28T15:38:10.178Z,4.30
2019-05-28T15:40:39.409Z,4.20
2019-05-28T15:43:08.930Z,4.77
2019-05-28T15:45:38.172Z,4.10
2019-05-28T15:48:07.513Z,5.03
2019-05-28T15:50:37.076Z,4.80
2019-05-28T15:53:06.369Z,4.77
2019-05-28T15:55:36.199Z,5.37
2019-05-28T15:58:05.451Z,5.00
2019-05-28T16:00:34.980Z,5.03
2019-05-28T16:03:04.292Z,5.00
2019-05-28T16:05:33.828Z,4.50
2019-05-28T16:08:03.057Z,4.63
2019-05-28T16:10:32.293Z,6.03
2019-05-28T16:13:01.467Z,5.00
2019-05-28T16:15:31.027Z,5.20
2019-05-28T16:18:00.602Z,4.70
2019-05-28T16:20:29.794Z,5.47
2019-05-28T16:22:59.170Z,5.40
2019-05-28T16:25:28.447Z,4.90
2019-05-28T16:27:57.995Z,5.30
2019-05-28T16:30:28.706Z,5.23
2019-05-28T16:32:57.868Z,5.23
2019-05-28T16:35:27.481Z,5.70
2019-05-28T16:37:57.029Z,5.40
2019-05-28T16:40:26.347Z,6.27
2019-05-28T16:42:55.658Z,5.70
2019-05-28T16:45:26.596Z,6.57
2019-05-28T16:47:55.847Z,6.00
2019-05-28T16:50:25.013Z,5.57
2019-05-28T16:52:54.259Z,5.80
2019-05-28T16:55:23.574Z,7.47
2019-05-28T16:57:52.846Z,5.67
2019-05-28T17:00:22.736Z,4.77
2019-05-28T17:02:52.033Z,4.30
2019-05-28T17:05:21.346Z,4.10
2019-05-28T17:07:51.141Z,5.27
2019-05-28T17:10:32.590Z,5.77
2019-05-28T17:12:51.870Z,5.57
2019-05-28T17:15:21.385Z,6.47
2019-05-28T17:17:50.918Z,6.00
2019-05-28T17:20:21.076Z,5.80
2019-05-28T17:22:50.881Z,6.67
2019-05-28T17:25:20.768Z,5.90
2019-05-28T17:27:50.290Z,7.70
2019-05-28T17:30:24.033Z,9.30
2019-05-28T17:32:51.766Z,10.27
2019-05-28T17:35:21.124Z,9.53
2019-05-28T17:37:50.676Z,10.33
2019-05-28T17:40:23.052Z,9.70
2019-05-28T17:42:51.012Z,10.70
2019-05-28T17:45:20.565Z,10.23
2019-05-28T17:47:49.890Z,9.30
2019-05-28T17:50:19.135Z,9.47
2019-05-28T17:52:51.235Z,8.07
2019-05-28T17:55:19.654Z,8.57
2019-05-28T17:57:49.235Z,8.87
2019-05-28T18:00:18.423Z,7.83
2019-05-28T18:02:48.772Z,7.83
2019-05-28T18:05:18.583Z,8.17
2019-05-28T18:07:47.968Z,7.23
2019-05-28T18:10:17.608Z,7.97
2019-05-28T18:12:46.950Z,8.57
2019-05-28T18:15:16.573Z,7.73
2019-05-28T18:17:46.430Z,11.03
2019-05-28T18:20:15.958Z,7.93
2019-05-28T18:22:45.285Z,8.40
2019-05-28T18:25:15.104Z,8.90
2019-05-28T18:27:44.422Z,8.97
2019-05-28T18:30:14.061Z,8.30
2019-05-28T18:32:43.322Z,9.23
2019-05-28T18:35:12.972Z,8.57
2019-05-28T18:37:42.572Z,7.70
2019-05-28T18:40:13.576Z,8.73
2019-05-28T18:42:42.953Z,10.20
2019-05-28T18:45:12.622Z,7.70
2019-05-28T18:47:42.094Z,8.10
2019-05-28T18:50:11.550Z,7.90
2019-05-28T18:52:40.813Z,7.70
2019-05-28T18:55:10.838Z,8.87
2019-05-28T18:57:40.088Z,8.43
2019-05-28T19:00:09.773Z,8.70
2019-05-28T19:02:39.455Z,8.53
2019-05-28T19:05:08.946Z,9.03
2019-05-28T19:07:38.497Z,8.50
2019-05-28T19:10:09.485Z,9.03
2019-05-28T19:12:39.017Z,9.37
2019-05-28T19:15:09.128Z,9.67
2019-05-28T19:17:38.380Z,9.40
2019-05-28T19:20:08.422Z,8.40
2019-05-28T19:22:37.684Z,9.70
2019-05-28T19:25:08.773Z,10.07
2019-05-28T19:27:38.101Z,9.43
2019-05-28T19:30:08.228Z,10.97
2019-05-28T19:32:37.591Z,11.53
2019-05-28T19:35:08.061Z,11.63
2019-05-28T19:37:37.956Z,11.50
2019-05-28T19:40:07.445Z,13.00
2019-05-28T19:42:36.631Z,13.33
2019-05-28T19:45:06.702Z,13.57
2019-05-28T19:47:36.149Z,15.03
2019-05-28T19:50:06.226Z,15.50
2019-05-28T19:52:35.466Z,17.47
2019-05-28T19:55:05.913Z,15.93
2019-05-28T19:57:35.235Z,18.37
2019-05-28T20:00:04.847Z,21.63
2019-05-28T20:02:34.189Z,19.27
2019-05-28T20:05:03.474Z,17.17
2019-05-28T20:07:32.826Z,20.37
2019-05-28T20:10:02.302Z,21.73
2019-05-28T20:12:32.072Z,16.60
2019-05-28T20:15:01.388Z,15.07
2019-05-28T20:17:30.685Z,14.03
2019-05-28T20:19:59.888Z,14.47
2019-05-28T20:22:29.752Z,15.17
2019-05-28T20:24:59.345Z,14.17
2019-05-28T20:27:28.920Z,13.80
2019-05-28T20:29:58.748Z,14.97
2019-05-28T20:32:28.132Z,15.03
2019-05-28T20:34:57.360Z,14.80
2019-05-28T20:37:26.549Z,15.33
2019-05-28T20:39:56.117Z,14.27
2019-05-28T20:42:27.443Z,13.90
2019-05-28T20:44:56.661Z,13.57
2019-05-28T20:47:26.005Z,13.47
2019-05-28T20:49:55.636Z,13.53
2019-05-28T20:52:25.444Z,13.60
2019-05-28T20:54:55.120Z,12.80
2019-05-28T20:57:24.459Z,14.43
2019-05-28T20:59:53.956Z,13.67
2019-05-28T21:02:23.570Z,14.00
2019-05-28T21:04:54.469Z,13.47
2019-05-28T21:07:23.800Z,13.20
2019-05-28T21:09:54.330Z,13.50
2019-05-28T21:12:23.755Z,12.83
2019-05-28T21:14:53.211Z,12.83
2019-05-28T21:20:26.508Z,14.23
2019-05-28T21:22:56.367Z,13.83
2019-05-28T21:25:34.850Z,12.20
2019-05-28T21:28:04.143Z,12.47
2019-05-28T21:30:33.324Z,11.13
2019-05-28T21:33:02.880Z,10.50
2019-05-28T21:35:32.116Z,9.63
2019-05-28T21:38:01.607Z,10.50
2019-05-28T21:40:31.153Z,9.37
2019-05-28T21:43:08.923Z,9.20
2019-05-28T21:45:31.567Z,10.23
2019-05-28T21:48:01.494Z,11.47
2019-05-28T21:50:30.791Z,11.80
2019-05-28T21:53:01.035Z,12.10
2019-05-28T21:55:30.472Z,10.57
2019-05-28T21:57:59.944Z,10.30
2019-05-28T22:00:38.348Z,10.07
2019-05-28T22:03:07.822Z,10.37
2019-05-28T22:05:37.369Z,11.17
2019-05-28T22:08:07.788Z,12.67
2019-05-28T22:10:37.338Z,11.57
2019-05-28T22:13:21.532Z,12.60
2019-05-28T22:15:37.885Z,11.60
2019-05-28T22:18:07.059Z,11.27
2019-05-28T22:20:36.314Z,10.97
2019-05-28T22:23:05.479Z,10.03
2019-05-28T22:25:35.000Z,11.00
2019-05-28T22:28:05.007Z,9.53
2019-05-28T22:30:34.356Z,8.40
2019-05-28T22:33:04.103Z,8.17
2019-05-28T22:35:33.503Z,8.57
2019-05-28T22:38:03.368Z,8.10
2019-05-28T22:40:32.780Z,7.57
2019-05-28T22:43:03.598Z,9.07
2019-05-28T22:45:33.264Z,8.03
2019-05-28T22:48:06.371Z,6.90
2019-05-28T22:50:33.480Z,9.10
2019-05-28T22:53:03.835Z,7.07
2019-05-28T22:55:33.455Z,8.07
2019-05-28T22:58:02.783Z,7.77
2019-05-28T23:00:32.090Z,10.63
2019-05-28T23:03:01.430Z,7.53
2019-05-28T23:05:30.972Z,7.63
2019-05-28T23:08:01.524Z,6.50
2019-05-28T23:10:30.862Z,5.10
2019-05-28T23:13:00.895Z,5.80
2019-05-28T23:15:30.234Z,5.37
2019-05-28T23:18:00.341Z,6.27
2019-05-28T23:20:29.783Z,6.43
2019-05-28T23:22:59.182Z,6.93
2019-05-28T23:25:28.784Z,7.20
2019-05-28T23:27:58.224Z,7.03
2019-05-28T23:30:27.456Z,8.17
2019-05-28T23:32:57.006Z,8.37
2019-05-28T23:35:26.233Z,8.63
2019-05-28T23:37:55.486Z,6.43
2019-05-28T23:40:25.076Z,5.80
2019-05-28T23:42:54.920Z,6.07
2019-05-28T23:45:24.157Z,4.63
2019-05-28T23:47:53.408Z,7.27
2019-05-28T23:50:22.584Z,5.37
2019-05-28T23:52:51.822Z,5.50
2019-05-28T23:55:21.073Z,4.40
2019-05-28T23:57:50.500Z,5.70
